To NAV CANADA Home Page Login to a new session Search on AWWS site Disclaimer Vers la page française équivalente Tips FAQ What's new on the site To the Forecasts and Observations / NOTAM section To "File a Flight Plan" website Publications and other links Update of the User's profile FIC Telephone Numbers My Weather Data Folder Route Weather Data Regional Weather Data Local Weather Data To the Forecasts and Observations / NOTAM section
Request Generated 03/19/2019 at 23:06:24 UTC . Weather information available at that time is displayed.

METAR/TAF

DAWSON CITY/YT    

LWIS CYDA 192300Z AUTO 27005KT 210V310 11/M01 A2977=
METAR CYDA 192200Z 23008KT 20SM FEW065 FEW120 BKN220 09/M01 A2975 RMK SC2AC1CI3 AC TR LAST STFD OBS/NEXT 201300 Z SLP095=
METAR CYDA 192100Z 23009KT 20SM BKN065 06/M01 A2974 RMK SC7 CU EMBD SLP091=

*** REMARK        : Forecast period has ended; this was the last TAF issued
*** REMARQUE : La période de prévision est échue; ceci était le dernier TAF qui a été émis
TAF CYDA 191438Z 1915/1922 VRB03KT P6SM BKN060
FM191800 VRB03KT P6SM SCT060 BKN200
RMK NXT FCST WILL BE ISSUED AT 201445Z=
Your time UTC time
Weather data provided by Environment Canada and NAV CANADA